Time;durP1;ratioP1;P1;durP2;ratioP2;P2;SDS_P1;SDS_P2;PMS_P1;PMS_P2;Temp;Humidity;BMP_temperature;BMP_pressure;BME280_temperature;BME280_humidity;BME280_pressure;Samples;Min_cycle;Max_cycle;Signal;HPM_P1;HPM_P2
2022/08/07 00:02:07;;;;;;;8.70;7.60;;;;;;;;;;4896120;29;20214;-74
2022/08/07 00:04:32;;;;;;;8.40;7.60;;;;;;;;;;4917117;29;20289;-74
2022/08/07 00:07:00;;;;;;;9.13;8.23;;;;;;;;;;4916193;29;20239;-74
2022/08/07 00:09:26;;;;;;;8.87;8.07;;;;;;;;;;4915592;29;20266;-74
2022/08/07 00:11:56;;;;;;;9.00;8.20;;;;;;;;;;4885279;29;20259;-74
2022/08/07 00:14:23;;;;;;;9.27;8.23;;;;;;;;;;4896857;29;20238;-74
2022/08/07 00:16:53;;;;;;;8.83;7.97;;;;;;;;;;4913938;29;20898;-74
2022/08/07 00:19:19;;;;;;;9.40;8.27;;;;;;;;;;4901247;29;20338;-74
2022/08/07 00:21:45;;;;;;;9.40;8.40;;;;;;;;;;4911911;29;20227;-74
2022/08/07 00:24:12;;;;;;;10.00;8.57;;;;;;;;;;4900029;29;20231;-74
2022/08/07 00:26:40;;;;;;;9.60;8.70;;;;;;;;;;4914834;29;20233;-74
2022/08/07 00:29:05;;;;;;;10.07;8.40;;;;;;;;;;4915458;29;20297;-74
2022/08/07 00:31:31;;;;;;;9.40;8.53;;;;;;;;;;4899648;29;20239;-74
2022/08/07 00:33:56;;;;;;;9.17;8.13;;;;;;;;;;4899727;29;20669;-74
2022/08/07 00:36:22;;;;;;;10.37;9.20;;;;;;;;;;4913042;29;20228;-75
2022/08/07 00:38:50;;;;;;;9.60;8.80;;;;;;;;;;4898993;29;20228;-74
2022/08/07 00:41:27;;;;;;;10.20;9.27;;;;;;;;;;4913470;29;20542;-74
2022/08/07 00:43:55;;;;;;;11.17;8.60;;;;;;;;;;4930453;28;20234;-74
2022/08/07 00:46:22;;;;;;;9.73;8.63;;;;;;;;;;4924939;29;20698;-74
2022/08/07 00:48:50;;;;;;;9.60;8.70;;;;;;;;;;4924638;29;20235;-73
2022/08/07 00:51:18;;;;;;;9.10;8.30;;;;;;;;;;4929179;29;20235;-74
2022/08/07 00:53:48;;;;;;;10.10;8.93;;;;;;;;;;4900327;29;20709;-74
2022/08/07 00:56:14;;;;;;;9.67;8.83;;;;;;;;;;4914158;29;20226;-74
2022/08/07 00:58:43;;;;;;;10.10;9.20;;;;;;;;;;4900107;29;20285;-74
2022/08/07 01:01:13;;;;;;;9.23;8.33;;;;;;;;;;4910663;29;20223;-74
2022/08/07 01:03:39;;;;;;;9.40;8.57;;;;;;;;;;4900215;29;20254;-75
2022/08/07 01:06:07;;;;;;;10.37;9.13;;;;;;;;;;4896093;29;20227;-74
2022/08/07 01:08:33;;;;;;;9.50;8.60;;;;;;;;;;4930804;29;20909;-74
2022/08/07 01:10:59;;;;;;;9.57;8.60;;;;;;;;;;4896949;29;20239;-74
2022/08/07 01:13:24;;;;;;;9.23;8.30;;;;;;;;;;4913638;29;20306;-74
2022/08/07 01:15:52;;;;;;;9.60;8.80;;;;;;;;;;4883580;29;20635;-74
2022/08/07 01:18:18;;;;;;;9.43;8.57;;;;;;;;;;4888330;29;20314;-74
2022/08/07 01:21:14;;;;;;;9.57;8.60;;;;;;;;;;4898512;29;20724;-73
2022/08/07 01:23:43;;;;;;;10.03;9.10;;;;;;;;;;4905960;29;20290;-74
2022/08/07 01:26:16;;;;;;;9.97;8.93;;;;;;;;;;4915771;29;20281;-73
2022/08/07 01:28:49;;;;;;;9.30;8.43;;;;;;;;;;4931264;29;20230;-74
2022/08/07 01:31:26;;;;;;;11.07;8.73;;;;;;;;;;4898346;29;20230;-73
2022/08/07 01:33:56;;;;;;;9.63;8.80;;;;;;;;;;4930038;29;20223;-73
2022/08/07 01:36:27;;;;;;;10.73;9.80;;;;;;;;;;4897349;29;20241;-75
2022/08/07 01:39:00;;;;;;;10.47;9.47;;;;;;;;;;4929659;29;20685;-74
2022/08/07 01:41:26;;;;;;;9.30;8.40;;;;;;;;;;4896903;29;20542;-74
2022/08/07 01:43:54;;;;;;;9.60;8.80;;;;;;;;;;4914883;29;20254;-74
2022/08/07 01:46:22;;;;;;;11.53;9.13;;;;;;;;;;4910960;29;20286;-74
2022/08/07 01:48:51;;;;;;;9.57;8.77;;;;;;;;;;4914628;29;20238;-74
2022/08/07 01:51:23;;;;;;;9.97;8.97;;;;;;;;;;4898279;29;20234;-74
2022/08/07 01:53:52;;;;;;;9.90;9.00;;;;;;;;;;4911897;29;20651;-74
2022/08/07 01:56:29;;;;;;;9.77;8.87;;;;;;;;;;4898634;28;20279;-75
2022/08/07 01:59:29;;;;;;;9.03;8.23;;;;;;;;;;4879920;29;20290;-74
2022/08/07 02:02:04;;;;;;;9.67;8.77;;;;;;;;;;4904727;29;20226;-74
2022/08/07 02:04:52;;;;;;;9.37;8.53;;;;;;;;;;4915765;29;20222;-74
2022/08/07 02:07:21;;;;;;;9.20;8.40;;;;;;;;;;4895174;29;20226;-73
2022/08/07 02:09:50;;;;;;;10.70;9.60;;;;;;;;;;4910047;29;20293;-74
2022/08/07 02:12:18;;;;;;;9.77;8.90;;;;;;;;;;4928037;29;20226;-74
2022/08/07 02:14:53;;;;;;;8.90;8.00;;;;;;;;;;4915836;29;20611;-74
2022/08/07 02:17:34;;;;;;;8.63;7.77;;;;;;;;;;4913312;28;21030;-74
2022/08/07 02:20:03;;;;;;;8.83;8.03;;;;;;;;;;4912536;29;20229;-73
2022/08/07 02:22:30;;;;;;;8.97;8.13;;;;;;;;;;4876809;29;20359;-73
2022/08/07 02:24:56;;;;;;;8.40;7.63;;;;;;;;;;4914204;29;20608;-73
2022/08/07 02:27:24;;;;;;;8.93;8.03;;;;;;;;;;4911209;29;20219;-74
2022/08/07 02:29:50;;;;;;;8.30;7.50;;;;;;;;;;4914022;29;20721;-75
2022/08/07 02:32:17;;;;;;;8.77;7.97;;;;;;;;;;4913245;29;20219;-74
2022/08/07 02:34:42;;;;;;;8.40;7.60;;;;;;;;;;4896810;29;20223;-74
2022/08/07 02:37:10;;;;;;;8.97;8.17;;;;;;;;;;4911531;29;20309;-74
2022/08/07 02:39:38;;;;;;;9.77;7.43;;;;;;;;;;4901440;29;20223;-74
2022/08/07 02:42:05;;;;;;;8.33;7.60;;;;;;;;;;4897056;29;20218;-74
2022/08/07 02:44:33;;;;;;;8.80;8.00;;;;;;;;;;4890113;29;20233;-73
2022/08/07 02:46:59;;;;;;;10.20;9.03;;;;;;;;;;4899107;29;20227;-74
2022/08/07 02:49:27;;;;;;;9.97;8.97;;;;;;;;;;4912909;29;20767;-74
2022/08/07 02:52:01;;;;;;;9.37;8.30;;;;;;;;;;4924814;28;20339;-74
2022/08/07 02:54:32;;;;;;;9.33;8.47;;;;;;;;;;4898861;29;20697;-74
2022/08/07 02:56:59;;;;;;;9.87;7.97;;;;;;;;;;4914294;29;20312;-74
2022/08/07 02:59:25;;;;;;;9.00;8.10;;;;;;;;;;4906067;29;20613;-74
2022/08/07 03:02:00;;;;;;;8.50;7.53;;;;;;;;;;4906927;29;20234;-74
2022/08/07 03:04:27;;;;;;;8.53;7.73;;;;;;;;;;4898821;29;20232;-73
2022/08/07 03:06:52;;;;;;;8.13;7.33;;;;;;;;;;4912307;29;20306;-75
2022/08/07 03:09:21;;;;;;;8.13;7.33;;;;;;;;;;4912644;29;20242;-74
2022/08/07 03:11:47;;;;;;;8.00;7.03;;;;;;;;;;4916091;29;20232;-74
2022/08/07 03:14:15;;;;;;;7.87;7.07;;;;;;;;;;4916238;29;20633;-74
2022/08/07 03:16:48;;;;;;;8.10;7.40;;;;;;;;;;4917412;29;20270;-75
2022/08/07 03:19:16;;;;;;;8.77;7.97;;;;;;;;;;4899090;29;20628;-74
2022/08/07 03:21:42;;;;;;;7.87;7.20;;;;;;;;;;4915928;29;20598;-74
2022/08/07 03:24:08;;;;;;;8.53;7.83;;;;;;;;;;4916313;29;20231;-74
2022/08/07 03:26:38;;;;;;;8.30;7.50;;;;;;;;;;4901352;29;20227;-74
2022/08/07 03:29:06;;;;;;;8.20;7.43;;;;;;;;;;4916185;29;20231;-74
2022/08/07 03:31:36;;;;;;;9.17;8.27;;;;;;;;;;4901273;29;20250;-74
2022/08/07 03:34:02;;;;;;;8.27;7.47;;;;;;;;;;4896126;29;20223;-74
2022/08/07 03:36:34;;;;;;;8.30;7.70;;;;;;;;;;4917288;29;20720;-74
2022/08/07 03:39:06;;;;;;;8.00;7.30;;;;;;;;;;4916103;29;20250;-74
2022/08/07 03:41:33;;;;;;;8.30;7.43;;;;;;;;;;4916232;29;20285;-74
2022/08/07 03:44:02;;;;;;;7.80;7.10;;;;;;;;;;4932364;29;20234;-74
2022/08/07 03:46:30;;;;;;;8.10;7.43;;;;;;;;;;4916693;29;20254;-74
2022/08/07 03:48:56;;;;;;;8.20;7.47;;;;;;;;;;4913074;29;20725;-74
2022/08/07 03:51:24;;;;;;;8.00;7.30;;;;;;;;;;4910268;29;20227;-74
2022/08/07 03:53:50;;;;;;;8.23;7.43;;;;;;;;;;4933819;29;20312;-74
2022/08/07 03:56:24;;;;;;;7.47;6.77;;;;;;;;;;4914166;29;20912;-73
2022/08/07 03:58:50;;;;;;;7.30;6.70;;;;;;;;;;4902264;29;20239;-73
2022/08/07 04:01:17;;;;;;;7.60;6.90;;;;;;;;;;4915363;29;20454;-74
2022/08/07 04:03:45;;;;;;;7.33;6.73;;;;;;;;;;4916883;29;20223;-74
2022/08/07 04:06:12;;;;;;;8.90;7.53;;;;;;;;;;4907677;29;20709;-74
2022/08/07 04:08:38;;;;;;;7.10;6.50;;;;;;;;;;4915739;29;20215;-74
2022/08/07 04:11:04;;;;;;;7.87;6.80;;;;;;;;;;4931845;28;20293;-74
2022/08/07 04:13:30;;;;;;;8.07;7.20;;;;;;;;;;4914972;29;20700;-75
2022/08/07 04:15:56;;;;;;;7.20;6.60;;;;;;;;;;4917169;29;20231;-75
2022/08/07 04:18:23;;;;;;;7.40;6.70;;;;;;;;;;4916339;29;20223;-74
2022/08/07 04:20:49;;;;;;;7.33;6.73;;;;;;;;;;4893122;29;20661;-74
2022/08/07 04:23:18;;;;;;;7.70;7.00;;;;;;;;;;4899077;29;20230;-74
2022/08/07 04:25:43;;;;;;;7.67;6.97;;;;;;;;;;4930380;29;20300;-74
2022/08/07 04:28:13;;;;;;;6.83;6.23;;;;;;;;;;4897464;29;20235;-74
2022/08/07 04:30:46;;;;;;;6.53;5.93;;;;;;;;;;4899393;29;20231;-74
2022/08/07 04:33:17;;;;;;;6.70;6.10;;;;;;;;;;4928656;29;20585;-74
2022/08/07 04:35:46;;;;;;;7.27;6.20;;;;;;;;;;4916193;29;20768;-74
2022/08/07 04:38:19;;;;;;;6.93;6.23;;;;;;;;;;4897855;29;20232;-74
2022/08/07 04:40:49;;;;;;;6.73;6.13;;;;;;;;;;4898202;29;20238;-74
2022/08/07 04:43:16;;;;;;;6.13;5.73;;;;;;;;;;4913843;29;20227;-74
2022/08/07 04:45:53;;;;;;;7.17;6.57;;;;;;;;;;4884610;29;20241;-73
2022/08/07 04:48:44;;;;;;;7.20;6.57;;;;;;;;;;4915862;29;20795;-73
2022/08/07 04:51:27;;;;;;;7.10;6.43;;;;;;;;;;4917426;29;20231;-74
2022/08/07 04:54:22;;;;;;;6.77;6.17;;;;;;;;;;4932022;29;20944;-74
2022/08/07 04:57:19;;;;;;;7.33;6.57;;;;;;;;;;4902304;29;20250;-73
2022/08/07 05:00:05;;;;;;;6.70;6.20;;;;;;;;;;4931153;29;20647;-74
2022/08/07 05:02:54;;;;;;;7.73;6.97;;;;;;;;;;4927571;29;20222;-73
2022/08/07 05:05:32;;;;;;;8.43;6.60;;;;;;;;;;4899855;29;21191;-74
2022/08/07 05:08:17;;;;;;;9.50;8.60;;;;;;;;;;4888710;29;20227;-74
2022/08/07 05:10:51;;;;;;;7.17;6.57;;;;;;;;;;4928905;29;20277;-74
2022/08/07 05:13:27;;;;;;;6.97;6.27;;;;;;;;;;4915564;29;20226;-74
2022/08/07 05:15:53;;;;;;;6.60;6.10;;;;;;;;;;4891249;29;20219;-73
2022/08/07 05:18:23;;;;;;;7.10;6.40;;;;;;;;;;4898494;29;20233;-73
2022/08/07 05:20:51;;;;;;;7.37;6.67;;;;;;;;;;4947058;29;20897;-73
2022/08/07 05:23:19;;;;;;;7.30;6.70;;;;;;;;;;4896160;29;20250;-77
2022/08/07 05:25:50;;;;;;;7.27;6.50;;;;;;;;;;4914707;29;20266;-72
2022/08/07 05:28:16;;;;;;;7.73;7.00;;;;;;;;;;4901570;29;20227;-74
2022/08/07 05:30:42;;;;;;;8.10;7.40;;;;;;;;;;4908080;29;20238;-75
2022/08/07 05:33:12;;;;;;;10.20;7.83;;;;;;;;;;4896201;29;20223;-72
2022/08/07 05:35:40;;;;;;;8.23;7.43;;;;;;;;;;4897662;29;20234;-73
2022/08/07 05:38:06;;;;;;;8.37;7.57;;;;;;;;;;4897931;29;20250;-74
2022/08/07 05:40:39;;;;;;;7.93;7.23;;;;;;;;;;4930604;29;20223;-74
2022/08/07 05:43:07;;;;;;;8.07;7.37;;;;;;;;;;4893619;29;20227;-74
2022/08/07 05:45:33;;;;;;;8.20;7.50;;;;;;;;;;4904604;29;20589;-75
2022/08/07 05:48:04;;;;;;;8.97;8.13;;;;;;;;;;4901121;29;20715;-75
2022/08/07 05:50:45;;;;;;;8.47;7.67;;;;;;;;;;4901870;29;20234;-75
2022/08/07 05:53:16;;;;;;;8.93;8.07;;;;;;;;;;4895823;29;20229;-72
2022/08/07 05:55:45;;;;;;;8.17;7.47;;;;;;;;;;4884117;29;20233;-74
2022/08/07 05:58:10;;;;;;;8.80;7.80;;;;;;;;;;4927604;28;20288;-73
2022/08/07 06:00:38;;;;;;;8.07;7.47;;;;;;;;;;4898989;29;20713;-74
2022/08/07 06:03:06;;;;;;;8.17;7.47;;;;;;;;;;4897267;28;20222;-72
2022/08/07 06:05:37;;;;;;;11.73;7.83;;;;;;;;;;4899055;29;20273;-74
2022/08/07 06:08:09;;;;;;;8.53;7.77;;;;;;;;;;4897511;28;20257;-74
2022/08/07 06:10:36;;;;;;;9.57;8.77;;;;;;;;;;4914334;29;20689;-74
2022/08/07 06:13:04;;;;;;;10.13;8.50;;;;;;;;;;4912244;29;20227;-74
2022/08/07 06:15:33;;;;;;;7.87;7.17;;;;;;;;;;4899001;29;20218;-74
2022/08/07 06:18:06;;;;;;;8.52;7.07;;;;;;;;;;4886921;29;20654;-74
2022/08/07 06:20:36;;;;;;;7.87;7.13;;;;;;;;;;4908646;29;20253;-73
2022/08/07 06:23:03;;;;;;;9.23;7.63;;;;;;;;;;4893678;29;20230;-74
2022/08/07 06:25:35;;;;;;;7.80;6.72;;;;;;;;;;4912176;29;20223;-74
2022/08/07 06:28:11;;;;;;;8.27;7.47;;;;;;;;;;4923276;29;20230;-74
2022/08/07 06:30:39;;;;;;;7.28;6.63;;;;;;;;;;4912970;29;20285;-74
2022/08/07 06:33:09;;;;;;;7.53;6.82;;;;;;;;;;4913997;28;20218;-75
2022/08/07 06:35:35;;;;;;;6.43;5.85;;;;;;;;;;4899787;29;20218;-75
2022/08/07 06:38:02;;;;;;;7.47;6.00;;;;;;;;;;4913675;29;20338;-75
2022/08/07 06:40:34;;;;;;;6.55;5.95;;;;;;;;;;4897746;29;20233;-74
2022/08/07 06:43:00;;;;;;;5.50;4.82;;;;;;;;;;4914557;29;20310;-75
2022/08/07 06:45:36;;;;;;;5.13;4.60;;;;;;;;;;4904163;29;20222;-73
2022/08/07 06:48:04;;;;;;;5.15;4.68;;;;;;;;;;4916834;29;20283;-75
2022/08/07 06:50:38;;;;;;;10.40;4.70;;;;;;;;;;4917833;29;20236;-74
2022/08/07 06:53:08;;;;;;;4.88;4.50;;;;;;;;;;4929269;29;20289;-74
2022/08/07 06:55:34;;;;;;;4.78;4.38;;;;;;;;;;4903013;29;20227;-74
2022/08/07 06:58:06;;;;;;;4.60;4.20;;;;;;;;;;4933033;29;20269;-75
2022/08/07 07:00:39;;;;;;;4.70;4.32;;;;;;;;;;4918519;29;20227;-74
2022/08/07 07:03:06;;;;;;;5.05;4.20;;;;;;;;;;4917854;28;20338;-74
2022/08/07 07:05:32;;;;;;;4.85;4.20;;;;;;;;;;4903125;29;20424;-76
2022/08/07 07:08:01;;;;;;;4.30;3.97;;;;;;;;;;4915663;29;20334;-77
2022/08/07 07:10:34;;;;;;;4.35;4.03;;;;;;;;;;4893972;29;20297;-75
2022/08/07 07:13:06;;;;;;;4.82;4.40;;;;;;;;;;4945531;29;20701;-75
2022/08/07 07:15:35;;;;;;;4.63;4.22;;;;;;;;;;4927710;29;20238;-74
2022/08/07 07:18:22;;;;;;;4.57;4.13;;;;;;;;;;4901049;29;20219;-74
2022/08/07 07:20:54;;;;;;;4.82;4.32;;;;;;;;;;4915741;29;20231;-75
2022/08/07 07:23:19;;;;;;;4.90;4.40;;;;;;;;;;4931173;28;20238;-75
2022/08/07 07:25:48;;;;;;;4.97;4.47;;;;;;;;;;4916001;29;20235;-75
2022/08/07 07:28:43;;;;;;;4.85;4.43;;;;;;;;;;4931915;29;20788;-75
2022/08/07 07:31:14;;;;;;;4.78;4.28;;;;;;;;;;4903084;29;20239;-76
2022/08/07 07:33:40;;;;;;;4.97;4.57;;;;;;;;;;4931937;29;20255;-76
2022/08/07 07:36:06;;;;;;;5.82;4.82;;;;;;;;;;4914510;28;20768;-75
2022/08/07 07:38:32;;;;;;;4.72;4.32;;;;;;;;;;4915902;29;20226;-71
2022/08/07 07:41:02;;;;;;;6.03;4.20;;;;;;;;;;4897029;29;20226;-73
2022/08/07 07:43:31;;;;;;;4.53;4.13;;;;;;;;;;4913568;29;20254;-77
2022/08/07 07:45:56;;;;;;;5.05;4.55;;;;;;;;;;4896399;29;20282;-76
2022/08/07 07:48:24;;;;;;;5.20;3.97;;;;;;;;;;4889789;29;20706;-72
2022/08/07 07:50:52;;;;;;;4.75;4.28;;;;;;;;;;4916528;29;20234;-74
2022/08/07 07:53:18;;;;;;;4.65;4.25;;;;;;;;;;4914563;29;20324;-74
2022/08/07 07:55:46;;;;;;;4.70;4.30;;;;;;;;;;4929679;29;20314;-75
2022/08/07 07:58:15;;;;;;;5.20;4.70;;;;;;;;;;4896393;29;20227;-74
2022/08/07 08:00:41;;;;;;;4.88;4.47;;;;;;;;;;4912342;29;20233;-74
2022/08/07 08:03:09;;;;;;;4.65;4.35;;;;;;;;;;4916900;28;20211;-75
2022/08/07 08:05:41;;;;;;;5.10;4.38;;;;;;;;;;4929828;29;20318;-75
2022/08/07 08:08:07;;;;;;;4.65;4.15;;;;;;;;;;4929730;29;20226;-74
2022/08/07 08:10:32;;;;;;;4.38;4.07;;;;;;;;;;4900941;29;20235;-73
2022/08/07 08:13:00;;;;;;;4.70;4.30;;;;;;;;;;4914285;28;20229;-74
2022/08/07 08:15:29;;;;;;;4.70;4.20;;;;;;;;;;4910587;28;20245;-74
2022/08/07 08:17:55;;;;;;;4.72;4.32;;;;;;;;;;4931768;28;20238;-75
2022/08/07 08:20:23;;;;;;;4.20;3.78;;;;;;;;;;4914514;29;21024;-74
2022/08/07 08:28:25;;;;;;;4.80;4.40;;;;;;;;;;4914346;29;20232;-75
2022/08/07 08:30:53;;;;;;;4.57;4.15;;;;;;;;;;4882905;28;20660;-75
2022/08/07 08:33:19;;;;;;;5.93;3.72;;;;;;;;;;4892104;28;20218;-75
2022/08/07 08:35:49;;;;;;;5.22;4.35;;;;;;;;;;4895947;29;20636;-74
2022/08/07 08:38:23;;;;;;;4.60;4.20;;;;;;;;;;4915100;29;20231;-73
2022/08/07 08:40:54;;;;;;;4.82;4.32;;;;;;;;;;4916042;29;20773;-74
2022/08/07 08:43:46;;;;;;;4.28;3.95;;;;;;;;;;4899645;29;20215;-73
2022/08/07 08:46:19;;;;;;;4.10;3.70;;;;;;;;;;4916259;29;20234;-73
2022/08/07 08:48:54;;;;;;;4.20;3.80;;;;;;;;;;4913860;29;20249;-74
2022/08/07 08:51:41;;;;;;;4.50;4.10;;;;;;;;;;4942516;29;20324;-73
2022/08/07 08:54:12;;;;;;;5.50;4.03;;;;;;;;;;4915774;28;20223;-73
2022/08/07 08:56:45;;;;;;;4.85;4.05;;;;;;;;;;4917446;29;20226;-73
2022/08/07 08:59:42;;;;;;;4.95;4.53;;;;;;;;;;4912086;29;20235;-73
2022/08/07 09:02:26;;;;;;;3.90;3.60;;;;;;;;;;4946293;29;20655;-72
2022/08/07 09:05:16;;;;;;;4.30;3.90;;;;;;;;;;4916561;29;20306;-73
2022/08/07 09:08:01;;;;;;;4.30;3.83;;;;;;;;;;4940410;28;20322;-72
2022/08/07 09:10:57;;;;;;;4.00;3.70;;;;;;;;;;4942648;29;20231;-74
2022/08/07 09:13:48;;;;;;;4.30;3.90;;;;;;;;;;4944892;29;20231;-75
2022/08/07 09:16:37;;;;;;;3.60;3.30;;;;;;;;;;4930049;29;20322;-74
2022/08/07 09:19:33;;;;;;;3.75;3.45;;;;;;;;;;4928059;29;20310;-76
2022/08/07 09:22:22;;;;;;;6.05;3.20;;;;;;;;;;4921783;29;20283;-74
2022/08/07 09:25:14;;;;;;;4.22;3.83;;;;;;;;;;4948827;28;20239;-75
2022/08/07 09:27:54;;;;;;;3.60;3.28;;;;;;;;;;4927977;29;20223;-75
2022/08/07 09:30:22;;;;;;;3.60;3.30;;;;;;;;;;4912645;29;21262;-74
2022/08/07 09:32:56;;;;;;;3.75;3.47;;;;;;;;;;4897893;29;20231;-72
2022/08/07 09:35:58;;;;;;;4.35;3.35;;;;;;;;;;4925805;29;21258;-72
2022/08/07 09:38:27;;;;;;;3.20;3.00;;;;;;;;;;4871417;29;20232;-76
2022/08/07 09:41:35;;;;;;;4.32;3.10;;;;;;;;;;4920740;29;20235;-74
2022/08/07 09:44:22;;;;;;;3.60;3.25;;;;;;;;;;4921900;29;20219;-71
2022/08/07 09:47:22;;;;;;;3.60;3.30;;;;;;;;;;4899476;29;20245;-76
2022/08/07 09:49:50;;;;;;;3.80;3.10;;;;;;;;;;4911523;29;20457;-74
2022/08/07 09:52:38;;;;;;;3.70;3.00;;;;;;;;;;4941579;29;20227;-73
2022/08/07 09:55:36;;;;;;;3.58;3.08;;;;;;;;;;4914806;29;20251;-74
2022/08/07 09:58:37;;;;;;;5.53;3.17;;;;;;;;;;4931794;28;20227;-73
2022/08/07 10:01:24;;;;;;;3.30;2.47;;;;;;;;;;4910712;29;20227;-72
2022/08/07 10:04:04;;;;;;;2.80;2.60;;;;;;;;;;4940163;28;20233;-73
2022/08/07 10:06:30;;;;;;;2.75;2.45;;;;;;;;;;4942148;29;20226;-75
2022/08/07 10:09:37;;;;;;;4.07;3.10;;;;;;;;;;4924850;29;20250;-75
2022/08/07 10:12:14;;;;;;;3.40;3.10;;;;;;;;;;4894979;29;20270;-73
2022/08/07 10:15:03;;;;;;;3.13;2.60;;;;;;;;;;4912920;29;20226;-73
2022/08/07 10:17:54;;;;;;;3.20;2.95;;;;;;;;;;4918659;29;20993;-72
2022/08/07 10:20:35;;;;;;;3.03;2.83;;;;;;;;;;4928053;29;20761;-71
2022/08/07 10:23:38;;;;;;;2.80;2.60;;;;;;;;;;4923043;29;20281;-74
2022/08/07 10:26:22;;;;;;;2.78;2.58;;;;;;;;;;4944008;29;20240;-74
2022/08/07 10:29:16;;;;;;;3.10;2.80;;;;;;;;;;4939686;29;20231;-75
2022/08/07 10:32:21;;;;;;;3.83;2.63;;;;;;;;;;4927282;29;20231;-74
2022/08/07 10:35:29;;;;;;;4.20;2.90;;;;;;;;;;4947071;28;20715;-72
2022/08/07 10:38:22;;;;;;;3.92;2.67;;;;;;;;;;4846139;29;20243;-76
2022/08/07 10:41:00;;;;;;;2.70;2.50;;;;;;;;;;4928624;29;20234;-73
2022/08/07 10:43:29;;;;;;;2.72;2.40;;;;;;;;;;4942437;29;20351;-76
2022/08/07 10:46:10;;;;;;;2.88;2.40;;;;;;;;;;4938804;28;20418;-76
2022/08/07 10:48:54;;;;;;;5.95;5.38;;;;;;;;;;4896624;29;20231;-72
2022/08/07 10:51:20;;;;;;;3.10;2.50;;;;;;;;;;4936824;29;20242;-74
2022/08/07 10:53:57;;;;;;;2.47;2.28;;;;;;;;;;4930651;29;20227;-72
2022/08/07 10:56:50;;;;;;;3.03;2.42;;;;;;;;;;4912477;29;20246;-75
2022/08/07 10:59:26;;;;;;;2.80;2.60;;;;;;;;;;4943046;28;20322;-71
2022/08/07 11:01:59;;;;;;;2.45;2.25;;;;;;;;;;4924029;29;20230;-73
2022/08/07 11:04:39;;;;;;;2.58;2.38;;;;;;;;;;4906083;29;20231;-71
2022/08/07 11:07:16;;;;;;;2.97;2.67;;;;;;;;;;4930934;28;20230;-73
2022/08/07 11:09:44;;;;;;;3.38;2.40;;;;;;;;;;4899251;29;20229;-73
2022/08/07 11:12:17;;;;;;;2.60;1.85;;;;;;;;;;4897591;28;21010;-74
2022/08/07 11:14:49;;;;;;;2.38;2.17;;;;;;;;;;4898011;29;20660;-73
2022/08/07 11:17:41;;;;;;;2.20;2.00;;;;;;;;;;4913431;29;20716;-72
2022/08/07 11:20:45;;;;;;;2.20;1.90;;;;;;;;;;4938016;28;20721;-71
2022/08/07 11:23:19;;;;;;;2.47;2.28;;;;;;;;;;4913290;28;20213;-76
2022/08/07 11:25:59;;;;;;;2.45;2.22;;;;;;;;;;4913732;29;20225;-73
2022/08/07 11:28:31;;;;;;;2.75;2.35;;;;;;;;;;4913996;29;20230;-73
2022/08/07 11:31:12;;;;;;;3.20;2.00;;;;;;;;;;4917778;28;20229;-72
2022/08/07 11:33:59;;;;;;;2.42;2.22;;;;;;;;;;4934124;29;20241;-73
2022/08/07 11:36:48;;;;;;;2.03;1.80;;;;;;;;;;4919961;29;20245;-75
2022/08/07 11:39:45;;;;;;;3.97;2.38;;;;;;;;;;4900666;28;20675;-73
2022/08/07 11:42:27;;;;;;;2.28;2.08;;;;;;;;;;4931281;29;20393;-72
2022/08/07 11:44:55;;;;;;;2.65;2.15;;;;;;;;;;4914722;29;20674;-73
2022/08/07 11:47:37;;;;;;;3.55;2.13;;;;;;;;;;4911277;29;20266;-74
2022/08/07 11:50:14;;;;;;;2.40;2.20;;;;;;;;;;4916408;29;20334;-75
2022/08/07 11:52:59;;;;;;;2.72;2.50;;;;;;;;;;4942121;29;20219;-73
2022/08/07 11:55:52;;;;;;;2.50;2.30;;;;;;;;;;4946471;29;20219;-72
2022/08/07 11:58:26;;;;;;;2.20;2.10;;;;;;;;;;4929027;29;20235;-72
2022/08/07 12:00:58;;;;;;;2.42;1.80;;;;;;;;;;4915601;29;20739;-73
2022/08/07 12:03:34;;;;;;;1.98;1.88;;;;;;;;;;4931358;29;20294;-72
2022/08/07 12:06:11;;;;;;;2.35;2.15;;;;;;;;;;4925573;29;20230;-72
2022/08/07 12:08:43;;;;;;;3.08;2.10;;;;;;;;;;4928347;29;20684;-74
2022/08/07 12:11:17;;;;;;;2.40;2.20;;;;;;;;;;4916931;29;20238;-72
2022/08/07 12:14:00;;;;;;;2.40;1.95;;;;;;;;;;4896434;29;20233;-75
2022/08/07 12:16:28;;;;;;;2.35;2.15;;;;;;;;;;4911904;29;20283;-76
2022/08/07 12:19:15;;;;;;;2.10;1.90;;;;;;;;;;4902107;29;20244;-75
2022/08/07 12:21:57;;;;;;;1.80;1.70;;;;;;;;;;4908282;29;20223;-75
2022/08/07 12:27:52;;;;;;;2.00;1.80;;;;;;;;;;4916003;28;20864;-75
2022/08/07 12:30:22;;;;;;;2.03;1.80;;;;;;;;;;4913662;29;20230;-75
2022/08/07 12:33:04;;;;;;;1.80;1.70;;;;;;;;;;4892936;29;20713;-75
2022/08/07 12:35:30;;;;;;;4.82;1.60;;;;;;;;;;4899093;29;20887;-74
2022/08/07 12:37:58;;;;;;;1.50;1.40;;;;;;;;;;4884281;29;20508;-73
2022/08/07 12:40:25;;;;;;;3.50;2.40;;;;;;;;;;4913381;28;20218;-72
2022/08/07 12:42:51;;;;;;;1.90;1.70;;;;;;;;;;4897005;29;20218;-72
2022/08/07 12:45:22;;;;;;;3.28;1.90;;;;;;;;;;4913406;29;20299;-72
2022/08/07 12:48:09;;;;;;;2.20;2.00;;;;;;;;;;4915249;28;20675;-69
2022/08/07 12:50:40;;;;;;;3.33;1.90;;;;;;;;;;4916029;29;20238;-73
2022/08/07 12:53:39;;;;;;;2.90;2.28;;;;;;;;;;4915870;29;20588;-72
2022/08/07 12:56:18;;;;;;;3.35;2.30;;;;;;;;;;4931353;29;20917;-73
2022/08/07 12:58:45;;;;;;;2.95;2.60;;;;;;;;;;4914108;29;20311;-73
2022/08/07 13:01:28;;;;;;;4.18;2.33;;;;;;;;;;4928627;29;20225;-72
2022/08/07 13:04:44;;;;;;;2.60;2.40;;;;;;;;;;4931602;29;20226;-71
2022/08/07 13:07:28;;;;;;;2.25;2.10;;;;;;;;;;4885303;28;20270;-71
2022/08/07 13:10:03;;;;;;;2.88;2.40;;;;;;;;;;4936583;28;20319;-73
2022/08/07 13:12:39;;;;;;;2.13;2.03;;;;;;;;;;4926528;29;20219;-72
2022/08/07 13:15:11;;;;;;;2.20;2.00;;;;;;;;;;4930970;29;20244;-74
2022/08/07 13:18:01;;;;;;;2.40;2.20;;;;;;;;;;4943518;28;20311;-72
2022/08/07 13:21:09;;;;;;;2.35;2.10;;;;;;;;;;4928891;28;20288;-70
2022/08/07 13:24:29;;;;;;;2.25;2.15;;;;;;;;;;4921871;28;20289;-76
2022/08/07 13:27:14;;;;;;;2.60;2.30;;;;;;;;;;4892081;29;20238;-75
2022/08/07 13:30:05;;;;;;;2.22;2.03;;;;;;;;;;4914105;29;20234;-75
2022/08/07 13:32:58;;;;;;;3.30;2.30;;;;;;;;;;4923732;29;20262;-76
2022/08/07 13:35:46;;;;;;;2.60;2.22;;;;;;;;;;4918733;28;21119;-76
2022/08/07 13:38:20;;;;;;;2.33;2.10;;;;;;;;;;4929802;29;20226;-76
2022/08/07 13:40:53;;;;;;;1.98;1.83;;;;;;;;;;4930545;29;20223;-76
2022/08/07 13:43:21;;;;;;;2.20;2.00;;;;;;;;;;4927356;29;20227;-76
2022/08/07 13:45:53;;;;;;;3.13;1.77;;;;;;;;;;4915099;29;20234;-76
2022/08/07 13:48:19;;;;;;;2.70;1.98;;;;;;;;;;4927778;29;20243;-76
2022/08/07 13:50:44;;;;;;;2.22;2.05;;;;;;;;;;4910942;29;20223;-76
2022/08/07 13:53:17;;;;;;;2.42;2.13;;;;;;;;;;4894719;29;20638;-76
2022/08/07 13:55:43;;;;;;;3.40;2.67;;;;;;;;;;4914647;29;20231;-76
2022/08/07 14:01:01;;;;;;;4.60;2.30;;;;;;;;;;4915768;29;20231;-76
2022/08/07 14:03:28;;;;;;;3.28;2.10;;;;;;;;;;4910272;29;20773;-76
2022/08/07 14:05:57;;;;;;;2.60;2.40;;;;;;;;;;4911038;29;20231;-76
2022/08/07 14:08:26;;;;;;;2.10;1.92;;;;;;;;;;4912995;29;20301;-74
2022/08/07 14:10:57;;;;;;;2.78;2.20;;;;;;;;;;4894702;29;20233;-75
2022/08/07 14:13:25;;;;;;;2.40;2.20;;;;;;;;;;4913360;29;20250;-76
2022/08/07 14:16:04;;;;;;;2.08;1.85;;;;;;;;;;4908400;29;20227;-75
2022/08/07 14:18:37;;;;;;;2.90;2.17;;;;;;;;;;4914302;29;20239;-77
2022/08/07 14:21:14;;;;;;;2.33;2.13;;;;;;;;;;4914265;29;20223;-77
2022/08/07 14:23:47;;;;;;;2.50;2.30;;;;;;;;;;4922162;29;20301;-75
2022/08/07 14:26:14;;;;;;;2.75;2.22;;;;;;;;;;4897484;29;20231;-74
2022/08/07 14:28:43;;;;;;;2.28;2.13;;;;;;;;;;4914671;29;20230;-75
2022/08/07 14:31:10;;;;;;;2.55;2.35;;;;;;;;;;4897246;29;20235;-75
2022/08/07 14:33:38;;;;;;;2.30;2.20;;;;;;;;;;4899121;29;20253;-75
2022/08/07 14:36:03;;;;;;;3.10;1.88;;;;;;;;;;4898843;29;20234;-76
2022/08/07 14:38:31;;;;;;;2.25;2.10;;;;;;;;;;4928713;29;20223;-75
2022/08/07 14:41:11;;;;;;;2.15;2.05;;;;;;;;;;4897425;29;20316;-76
2022/08/07 14:43:42;;;;;;;2.30;2.10;;;;;;;;;;4908493;29;20223;-75
2022/08/07 14:46:11;;;;;;;5.30;2.13;;;;;;;;;;4908607;29;20223;-75
2022/08/07 14:48:40;;;;;;;2.85;2.55;;;;;;;;;;4918234;29;20231;-75
2022/08/07 14:51:11;;;;;;;3.33;2.70;;;;;;;;;;4910624;29;20241;-75
2022/08/07 14:53:40;;;;;;;3.03;2.53;;;;;;;;;;4928769;29;20231;-76
2022/08/07 14:56:08;;;;;;;3.72;2.58;;;;;;;;;;4912589;29;20576;-76
2022/08/07 14:58:44;;;;;;;2.80;2.60;;;;;;;;;;4915275;29;20233;-76
2022/08/07 15:01:11;;;;;;;2.60;2.40;;;;;;;;;;4911863;29;20794;-75
2022/08/07 15:03:38;;;;;;;2.60;2.40;;;;;;;;;;4912290;29;20592;-75
2022/08/07 15:06:11;;;;;;;3.88;2.78;;;;;;;;;;4916297;29;20225;-75
2022/08/07 15:08:48;;;;;;;3.10;2.70;;;;;;;;;;4911888;29;20227;-74
2022/08/07 15:11:15;;;;;;;2.50;2.30;;;;;;;;;;4932959;29;21048;-75
2022/08/07 15:13:56;;;;;;;2.55;2.40;;;;;;;;;;4917396;29;20334;-75
2022/08/07 15:16:26;;;;;;;2.53;2.33;;;;;;;;;;4916812;29;21268;-75
2022/08/07 15:18:54;;;;;;;2.80;2.45;;;;;;;;;;4903024;29;20246;-74
2022/08/07 15:21:25;;;;;;;3.25;2.40;;;;;;;;;;4914098;29;20571;-75
2022/08/07 15:23:54;;;;;;;2.33;2.13;;;;;;;;;;4934013;29;20227;-75
2022/08/07 15:26:21;;;;;;;2.70;2.50;;;;;;;;;;4928307;29;20232;-75
2022/08/07 15:28:49;;;;;;;4.78;2.50;;;;;;;;;;4900719;29;20223;-76
2022/08/07 15:31:14;;;;;;;2.65;2.25;;;;;;;;;;4899445;29;20218;-76
2022/08/07 15:33:40;;;;;;;2.75;2.50;;;;;;;;;;4915538;29;20688;-76
2022/08/07 15:36:08;;;;;;;2.65;2.30;;;;;;;;;;4915897;29;20228;-75